Time;durP1;ratioP1;P1;durP2;ratioP2;P2;SDS_P1;SDS_P2;PMS_P1;PMS_P2;Temp;Humidity;BMP_temperature;BMP_pressure;BME280_temperature;BME280_humidity;BME280_pressure;Samples;Min_cycle;Max_cycle;Signal;HPM_P1;HPM_P2
2022/10/21 00:02:14;;;;;;;29.17;22.35;;;;;;;12.56;100.00;100700.88;5050917;28;20029;-62
2022/10/21 00:04:40;;;;;;;33.05;23.23;;;;;;;12.55;100.00;100707.56;5051075;28;20071;-62
2022/10/21 00:07:05;;;;;;;30.33;22.42;;;;;;;12.53;100.00;100705.13;5051232;28;20017;-62
2022/10/21 00:09:30;;;;;;;29.45;22.52;;;;;;;12.53;100.00;100704.28;5051455;28;20108;-62
2022/10/21 00:11:56;;;;;;;34.60;24.23;;;;;;;12.53;100.00;100699.56;5051592;28;20091;-61
2022/10/21 00:14:21;;;;;;;31.42;21.90;;;;;;;12.53;100.00;100693.19;5051156;28;20124;-62
2022/10/21 00:16:46;;;;;;;32.65;23.20;;;;;;;12.53;100.00;100694.03;5051128;28;20035;-61
2022/10/21 00:19:11;;;;;;;32.78;23.98;;;;;;;12.54;100.00;100692.06;5051145;28;20384;-61
2022/10/21 00:21:37;;;;;;;29.67;22.77;;;;;;;12.56;100.00;100698.09;5051121;28;20040;-60
2022/10/21 00:24:03;;;;;;;29.25;23.20;;;;;;;12.55;100.00;100696.47;5051240;28;20345;-61
2022/10/21 00:26:28;;;;;;;33.95;24.50;;;;;;;12.54;100.00;100698.44;5065472;23;20445;-62
2022/10/21 00:28:55;;;;;;;30.92;24.00;;;;;;;12.55;100.00;100693.69;5051501;28;20017;-62
2022/10/21 00:31:21;;;;;;;33.33;23.83;;;;;;;12.54;100.00;100686.50;5051471;28;20029;-62
2022/10/21 00:33:46;;;;;;;32.10;23.55;;;;;;;12.52;100.00;100683.22;5051333;28;20075;-62
2022/10/21 00:36:14;;;;;;;30.42;23.25;;;;;;;12.52;100.00;100675.72;5051446;28;20104;-62
2022/10/21 00:38:41;;;;;;;32.15;22.83;;;;;;;12.50;100.00;100680.78;5051258;28;20033;-62
2022/10/21 00:41:06;;;;;;;32.05;23.30;;;;;;;12.48;100.00;100683.06;5051235;28;20036;-62
2022/10/21 00:43:32;;;;;;;30.83;23.75;;;;;;;12.45;100.00;100683.72;5051606;28;20385;-65
2022/10/21 00:46:01;;;;;;;29.63;23.30;;;;;;;12.43;100.00;100681.25;5051327;28;20063;-63
2022/10/21 00:48:32;;;;;;;31.25;24.30;;;;;;;12.40;100.00;100684.69;5051290;28;20048;-62
2022/10/21 00:51:06;;;;;;;30.23;22.52;;;;;;;12.37;100.00;100693.66;5051049;28;20108;-63
2022/10/21 00:53:32;;;;;;;;;;;;;;;12.39;100.00;100696.09;5052062;28;20036;-63
2022/10/21 00:56:06;;;;;;;30.80;23.40;;;;;;;12.36;100.00;100688.44;5051283;28;19971;-62
2022/10/21 00:58:33;;;;;;;31.00;23.08;;;;;;;12.36;100.00;100685.66;5049861;28;20169;-62
2022/10/21 01:01:00;;;;;;;31.63;22.83;;;;;;;12.35;100.00;100675.69;5051214;28;20084;-62
2022/10/21 01:03:27;;;;;;;31.70;23.45;;;;;;;12.33;100.00;100678.78;5050856;28;20033;-62
2022/10/21 01:05:56;;;;;;;31.20;23.63;;;;;;;12.31;100.00;100676.34;5050881;28;20079;-62
2022/10/21 01:08:22;;;;;;;30.63;23.98;;;;;;;12.30;100.00;100677.47;5051202;28;20529;-62
2022/10/21 01:10:48;;;;;;;30.85;23.40;;;;;;;12.30;100.00;100666.38;5051103;28;20157;-62
2022/10/21 01:13:48;;;;;;;33.35;24.63;;;;;;;12.29;100.00;100663.94;5052793;28;20032;-62
2022/10/21 01:16:37;;;;;;;32.20;23.30;;;;;;;12.25;100.00;100647.13;5054690;28;20029;-62
2022/10/21 01:19:12;;;;;;;30.50;22.48;;;;;;;12.27;100.00;100655.94;5054555;28;20147;-62
2022/10/21 01:21:43;;;;;;;31.17;22.10;;;;;;;12.24;100.00;100658.53;5054576;28;20071;-62
2022/10/21 01:24:29;;;;;;;29.60;22.42;;;;;;;12.20;100.00;100654.78;5054721;28;20031;-62
2022/10/21 01:27:16;;;;;;;32.03;22.95;;;;;;;12.16;100.00;100651.84;5033324;28;20354;-62
2022/10/21 01:30:00;;;;;;;32.95;23.52;;;;;;;12.12;100.00;100642.50;5034650;28;20380;-62
2022/10/21 01:33:18;;;;;;;30.98;22.52;;;;;;;12.06;100.00;100639.06;5034906;28;20034;-62
2022/10/21 01:36:08;;;;;;;34.05;24.33;;;;;;;12.00;100.00;100623.72;4996093;28;20042;-62
2022/10/21 01:39:01;;;;;;;30.17;22.65;;;;;;;11.96;100.00;100617.97;5034596;28;20079;-62
2022/10/21 01:41:45;;;;;;;32.00;23.63;;;;;;;11.92;100.00;100618.94;5034580;28;20091;-63
2022/10/21 01:44:40;;;;;;;30.13;22.35;;;;;;;11.86;100.00;100627.38;5034419;28;20076;-62
2022/10/21 01:47:16;;;;;;;32.45;23.52;;;;;;;11.82;100.00;100612.53;5034726;28;20079;-62
2022/10/21 01:49:50;;;;;;;30.77;21.73;;;;;;;11.78;100.00;100610.75;5034382;28;20029;-62
2022/10/21 01:52:16;;;;;;;32.72;23.13;;;;;;;11.78;100.00;100606.00;5033039;28;20481;-62
2022/10/21 01:54:51;;;;;;;29.98;22.13;;;;;;;11.74;100.00;100595.88;5034222;28;20475;-62
2022/10/21 01:57:20;;;;;;;31.00;22.13;;;;;;;11.70;100.00;100593.75;5034153;28;20373;-62
2022/10/21 01:59:47;;;;;;;31.52;23.00;;;;;;;11.73;100.00;100597.84;5033985;28;20055;-62
2022/10/21 02:02:14;;;;;;;29.75;22.65;;;;;;;11.68;100.00;100592.44;5034035;28;20057;-62
2022/10/21 02:04:41;;;;;;;30.02;22.80;;;;;;;11.66;100.00;100591.94;5033818;28;20113;-62
2022/10/21 02:07:06;;;;;;;30.45;22.67;;;;;;;11.64;100.00;100592.25;5033846;28;20025;-62
2022/10/21 02:09:32;;;;;;;32.42;22.85;;;;;;;11.61;100.00;100579.06;5033739;28;20389;-62
2022/10/21 02:12:00;;;;;;;32.40;23.63;;;;;;;11.57;100.00;100582.78;5033758;28;20455;-62
2022/10/21 02:14:38;;;;;;;33.30;23.27;;;;;;;11.51;100.00;100579.34;5032275;28;20432;-62
2022/10/21 02:17:05;;;;;;;31.15;22.63;;;;;;;11.51;100.00;100579.34;5033658;28;20049;-62
2022/10/21 02:19:30;;;;;;;31.70;22.85;;;;;;;11.50;100.00;100572.97;5033558;28;20057;-62
2022/10/21 02:21:59;;;;;;;30.92;21.80;;;;;;;11.43;100.00;100578.16;5033813;28;20386;-62
2022/10/21 02:24:53;;;;;;;30.88;23.02;;;;;;;11.45;100.00;100583.34;5032775;28;20446;-62
2022/10/21 02:27:20;;;;;;;30.80;22.60;;;;;;;11.45;100.00;100567.56;5033559;28;20025;-62
2022/10/21 02:29:48;;;;;;;36.80;25.73;;;;;;;11.40;100.00;100562.16;5033450;28;20088;-63
2022/10/21 02:32:37;;;;;;;32.03;22.27;;;;;;;11.38;100.00;100558.91;5033351;28;20376;-63
2022/10/21 02:35:15;;;;;;;31.80;22.85;;;;;;;11.36;100.00;100572.25;5033265;28;20045;-62
2022/10/21 02:37:52;;;;;;;31.50;22.60;;;;;;;11.37;100.00;100576.66;5033278;28;20033;-63
2022/10/21 02:40:23;;;;;;;30.40;22.63;;;;;;;11.31;100.00;100575.16;5033326;28;20041;-63
2022/10/21 02:42:53;;;;;;;31.70;22.15;;;;;;;11.32;100.00;100580.38;5032956;28;20441;-63
2022/10/21 02:45:20;;;;;;;31.23;23.13;;;;;;;11.29;100.00;100581.00;5033339;28;20023;-63
2022/10/21 02:47:48;;;;;;;31.85;23.08;;;;;;;11.29;100.00;100572.69;5032957;28;20026;-62
2022/10/21 02:50:13;;;;;;;30.67;23.13;;;;;;;11.29;100.00;100572.69;5032882;28;20025;-62
2022/10/21 02:52:38;;;;;;;31.35;23.55;;;;;;;11.29;100.00;100581.00;5032962;28;20155;-63
2022/10/21 02:55:04;;;;;;;33.53;23.02;;;;;;;11.29;100.00;100580.22;5032921;28;20049;-63
2022/10/21 02:57:29;;;;;;;30.90;23.20;;;;;;;11.24;100.00;100570.88;5033185;28;20571;-63
2022/10/21 02:59:55;;;;;;;31.23;22.08;;;;;;;11.28;100.00;100573.84;5032900;28;20045;-62
2022/10/21 03:02:20;;;;;;;30.98;22.90;;;;;;;11.28;100.00;100568.28;5032907;28;20354;-62
2022/10/21 03:04:45;;;;;;;31.98;22.85;;;;;;;11.27;100.00;100558.34;5032720;28;20376;-62
2022/10/21 03:07:10;;;;;;;31.63;23.08;;;;;;;11.28;100.00;100560.00;5032783;28;20061;-62
2022/10/21 03:09:36;;;;;;;32.53;22.90;;;;;;;11.26;100.00;100553.16;5032535;28;20029;-62
2022/10/21 03:12:01;;;;;;;30.25;23.13;;;;;;;11.24;100.00;100553.47;5032539;28;20032;-62
2022/10/21 03:14:26;;;;;;;33.10;22.13;;;;;;;11.24;100.00;100559.00;5032546;28;20025;-62
2022/10/21 03:16:51;;;;;;;33.13;22.33;;;;;;;11.22;100.00;100558.50;5032383;28;20041;-63
2022/10/21 03:19:17;;;;;;;30.13;21.80;;;;;;;11.22;100.00;100564.84;5032435;28;20029;-63
2022/10/21 03:21:42;;;;;;;35.13;22.80;;;;;;;11.20;100.00;100561.56;5032556;28;20499;-62
2022/10/21 03:24:07;;;;;;;29.65;21.35;;;;;;;11.18;100.00;100563.03;5032522;28;20101;-62
2022/10/21 03:26:33;;;;;;;31.48;20.95;;;;;;;11.16;100.00;100557.81;5031950;28;20045;-62
2022/10/21 03:28:58;;;;;;;30.95;20.90;;;;;;;11.14;100.00;100550.97;5032220;28;20029;-63
2022/10/21 03:31:23;;;;;;;31.15;22.05;;;;;;;11.12;100.00;100556.81;5032120;28;20484;-62
2022/10/21 03:33:49;;;;;;;31.52;20.70;;;;;;;11.11;100.00;100554.38;5032301;28;20052;-63
2022/10/21 03:36:14;;;;;;;31.30;23.02;;;;;;;11.06;100.00;100558.09;5031525;28;20057;-63
2022/10/21 03:38:39;;;;;;;31.25;22.02;;;;;;;11.04;100.00;100561.19;5032130;28;20029;-62
2022/10/21 03:41:04;;;;;;;31.17;21.75;;;;;;;11.01;100.00;100560.97;5032303;28;20422;-63
2022/10/21 03:43:30;;;;;;;32.60;21.50;;;;;;;11.01;100.00;100559.03;5032217;28;20025;-63
2022/10/21 03:45:55;;;;;;;30.13;20.95;;;;;;;10.99;100.00;100566.81;5032144;28;20029;-63
2022/10/21 03:48:20;;;;;;;32.83;22.02;;;;;;;10.98;100.00;100558.84;5032026;28;20021;-63
2022/10/21 03:50:46;;;;;;;29.38;21.15;;;;;;;10.98;100.00;100558.84;5031937;28;20079;-63
2022/10/21 03:53:11;;;;;;;31.30;20.50;;;;;;;10.93;100.00;100554.25;5032058;28;20053;-62
2022/10/21 03:55:36;;;;;;;29.23;20.02;;;;;;;10.90;100.00;100552.13;5031788;28;20188;-63
2022/10/21 03:58:01;;;;;;;30.42;20.20;;;;;;;10.89;100.00;100558.78;5032259;28;20022;-63
2022/10/21 04:00:27;;;;;;;28.90;19.58;;;;;;;10.87;100.00;100547.19;5031800;28;20049;-63
2022/10/21 04:02:52;;;;;;;31.35;19.40;;;;;;;10.86;100.00;100545.59;5031715;28;20243;-63
2022/10/21 04:05:17;;;;;;;30.77;19.80;;;;;;;10.85;100.00;100539.22;5031858;28;20026;-63
2022/10/21 04:07:43;;;;;;;28.88;20.17;;;;;;;10.84;100.00;100542.31;5031711;28;20030;-63
2022/10/21 04:10:09;;;;;;;29.27;19.55;;;;;;;10.84;100.00;100550.63;5032196;28;20025;-63
2022/10/21 04:12:34;;;;;;;29.92;19.15;;;;;;;10.81;100.00;100546.53;5031789;28;20033;-63
2022/10/21 04:14:59;;;;;;;28.45;19.50;;;;;;;10.80;100.00;100544.06;5032176;28;20098;-63
2022/10/21 04:17:25;;;;;;;34.42;20.30;;;;;;;10.79;100.00;100550.72;5031737;28;20485;-63
2022/10/21 04:19:51;;;;;;;29.83;19.55;;;;;;;10.78;100.00;100541.63;5031677;28;20029;-63
2022/10/21 04:22:16;;;;;;;29.17;18.88;;;;;;;10.78;100.00;100552.69;5031620;28;20025;-62
2022/10/21 04:24:41;;;;;;;27.83;17.77;;;;;;;10.76;100.00;100544.72;5031500;28;20045;-62
2022/10/21 04:27:07;;;;;;;28.02;18.98;;;;;;;10.74;100.00;100546.13;5031559;28;20036;-62
2022/10/21 04:29:32;;;;;;;28.70;19.98;;;;;;;10.73;100.00;100548.09;5031712;28;20037;-63
2022/10/21 04:31:57;;;;;;;28.50;18.23;;;;;;;10.70;100.00;100543.19;5031520;28;20033;-62
2022/10/21 04:34:22;;;;;;;26.75;18.30;;;;;;;10.68;100.00;100541.88;5031586;28;20025;-62
2022/10/21 04:36:48;;;;;;;27.38;19.20;;;;;;;10.67;100.00;100540.25;5031383;28;20541;-63
2022/10/21 04:39:13;;;;;;;27.05;17.60;;;;;;;10.66;100.00;100544.13;5031291;28;20029;-62
2022/10/21 04:41:38;;;;;;;28.33;18.92;;;;;;;10.62;100.00;100552.25;5031363;28;20059;-63
2022/10/21 04:44:05;;;;;;;27.13;18.67;;;;;;;10.61;100.00;100551.44;5031383;28;20128;-62
2022/10/21 04:46:30;;;;;;;27.80;18.52;;;;;;;10.59;100.00;100547.31;5031475;28;20037;-62
2022/10/21 04:48:56;;;;;;;27.52;17.65;;;;;;;10.58;100.00;100546.53;5034212;28;20025;-62
2022/10/21 04:51:21;;;;;;;30.05;19.63;;;;;;;10.59;100.00;100552.84;5035237;28;20416;-63
2022/10/21 04:53:46;;;;;;;29.73;20.35;;;;;;;10.56;100.00;100551.53;5033877;28;20087;-63
2022/10/21 04:56:12;;;;;;;26.05;18.20;;;;;;;10.55;100.00;100552.69;5035086;28;20163;-62
2022/10/21 04:58:37;;;;;;;28.52;18.02;;;;;;;10.53;100.00;100559.66;5033692;28;20124;-62
2022/10/21 05:01:03;;;;;;;28.65;17.65;;;;;;;10.52;100.00;100555.25;5035016;28;20033;-62
2022/10/21 05:03:29;;;;;;;28.52;17.83;;;;;;;10.52;100.00;100544.19;5035095;28;20033;-62
2022/10/21 05:05:54;;;;;;;30.38;18.00;;;;;;;10.50;100.00;100543.69;5035015;28;20128;-63
2022/10/21 05:08:20;;;;;;;26.70;17.85;;;;;;;10.48;100.00;100548.72;5034857;28;20037;-62
2022/10/21 05:10:46;;;;;;;29.10;17.73;;;;;;;10.47;100.00;100550.66;5035027;28;20380;-62
2022/10/21 05:13:11;;;;;;;28.48;17.80;;;;;;;10.44;100.00;100543.81;5035066;28;20103;-62
2022/10/21 05:15:37;;;;;;;28.77;18.45;;;;;;;10.45;100.00;100544.63;5034929;28;20065;-62
2022/10/21 05:18:03;;;;;;;29.13;17.67;;;;;;;10.45;100.00;100545.44;5034844;28;20025;-62
2022/10/21 05:20:28;;;;;;;27.48;18.25;;;;;;;10.43;100.00;100544.94;5035085;28;20052;-63
2022/10/21 05:22:53;;;;;;;26.55;17.40;;;;;;;10.41;100.00;100544.44;5034691;28;20044;-62
2022/10/21 05:25:19;;;;;;;28.60;17.48;;;;;;;10.42;100.00;100548.84;5034233;28;20136;-62
2022/10/21 05:27:45;;;;;;;28.17;18.13;;;;;;;10.42;100.00;100540.53;5034478;28;20104;-63
2022/10/21 05:30:12;;;;;;;27.58;18.35;;;;;;;10.42;100.00;100529.47;5034520;28;20036;-63
2022/10/21 05:32:37;;;;;;;26.73;17.83;;;;;;;10.42;100.00;100534.19;5034378;28;20029;-62
2022/10/21 05:35:03;;;;;;;27.42;18.10;;;;;;;10.41;100.00;100530.59;5034559;28;20025;-63
2022/10/21 05:37:28;;;;;;;27.65;17.80;;;;;;;10.41;100.00;100532.56;5034551;28;20385;-63
2022/10/21 05:39:53;;;;;;;27.17;18.02;;;;;;;10.36;100.00;100527.94;5034057;28;20026;-63
2022/10/21 05:42:19;;;;;;;26.40;18.20;;;;;;;10.37;100.00;100523.22;5034371;28;20106;-63
2022/10/21 05:44:44;;;;;;;26.80;17.35;;;;;;;10.36;100.00;100516.88;5034066;28;20033;-63
2022/10/21 05:47:09;;;;;;;26.90;18.15;;;;;;;10.37;100.00;100518.56;5034295;28;20461;-62
2022/10/21 05:49:35;;;;;;;27.73;18.02;;;;;;;10.35;100.00;100512.47;5034236;28;20469;-62
2022/10/21 05:52:01;;;;;;;27.85;18.73;;;;;;;10.36;100.00;100516.03;5033939;28;20168;-62
2022/10/21 05:54:26;;;;;;;27.42;17.70;;;;;;;10.34;100.00;100504.50;5032435;28;20022;-62
2022/10/21 05:56:54;;;;;;;26.80;17.50;;;;;;;10.32;100.00;100504.00;5033995;28;20116;-62
2022/10/21 05:59:20;;;;;;;26.20;17.58;;;;;;;10.30;100.00;100505.13;5033394;28;20021;-62
2022/10/21 06:01:45;;;;;;;27.60;18.85;;;;;;;10.32;100.00;100501.22;5033792;28;20051;-62
2022/10/21 06:04:10;;;;;;;27.15;17.58;;;;;;;10.33;100.00;100498.13;5033798;28;20025;-62
2022/10/21 06:06:36;;;;;;;27.50;18.77;;;;;;;10.32;100.00;100506.75;5033862;28;20021;-63
2022/10/21 06:09:01;;;;;;;26.35;17.42;;;;;;;10.30;100.00;100505.13;5033604;28;20115;-62
2022/10/21 06:11:26;;;;;;;26.73;17.70;;;;;;;10.31;100.00;100497.63;5033988;28;20510;-63
2022/10/21 06:13:52;;;;;;;27.80;18.40;;;;;;;10.33;100.00;100500.09;5034136;28;20476;-62
2022/10/21 06:16:17;;;;;;;26.58;17.92;;;;;;;10.35;100.00;100501.41;5033502;28;20049;-62
2022/10/21 06:18:43;;;;;;;27.60;18.65;;;;;;;10.36;100.00;100497.53;5033352;28;20087;-63
2022/10/21 06:21:08;;;;;;;27.00;19.27;;;;;;;10.39;100.00;100499.66;5033476;28;20100;-63
2022/10/21 06:23:34;;;;;;;29.10;18.98;;;;;;;10.39;100.00;100502.44;5033174;28;20108;-62
2022/10/21 06:26:06;;;;;;;28.33;18.90;;;;;;;10.39;100.00;100496.09;5033405;28;20080;-63
2022/10/21 06:28:34;;;;;;;28.85;18.92;;;;;;;10.43;100.00;100511.75;5033223;28;20126;-63
2022/10/21 06:31:00;;;;;;;29.33;18.58;;;;;;;10.45;100.00;100503.13;5033094;28;20068;-63
2022/10/21 06:33:25;;;;;;;26.92;18.58;;;;;;;10.45;100.00;100506.72;5032972;28;20037;-62
2022/10/21 06:35:51;;;;;;;27.58;17.83;;;;;;;10.48;100.00;100504.47;5032964;28;20488;-62
2022/10/21 06:38:17;;;;;;;28.10;19.20;;;;;;;10.47;100.00;100506.41;5033041;28;20029;-62
2022/10/21 06:40:43;;;;;;;27.55;19.05;;;;;;;10.51;100.00;100512.13;5033096;28;20037;-63
2022/10/21 06:43:08;;;;;;;28.05;20.08;;;;;;;10.54;100.00;100515.06;5032952;28;20048;-63
2022/10/21 06:45:33;;;;;;;29.55;19.52;;;;;;;10.56;100.00;100509.25;5032884;28;20392;-64
2022/10/21 06:47:59;;;;;;;30.85;21.27;;;;;;;10.56;100.00;100512.81;5032887;28;20037;-63
2022/10/21 06:50:25;;;;;;;30.13;20.25;;;;;;;10.58;100.00;100523.59;5032739;28;20087;-63
2022/10/21 06:52:50;;;;;;;28.08;19.13;;;;;;;10.60;100.00;100532.38;5032663;28;20490;-63
2022/10/21 06:55:16;;;;;;;29.50;18.92;;;;;;;10.63;100.00;100540.06;5032781;28;20025;-63
2022/10/21 06:57:42;;;;;;;27.55;19.95;;;;;;;10.66;100.00;100542.19;5032771;28;20050;-62
2022/10/21 07:00:08;;;;;;;27.70;17.23;;;;;;;10.68;100.00;100547.41;5032386;28;20025;-63
2022/10/21 07:02:33;;;;;;;27.23;17.30;;;;;;;10.73;100.00;100552.81;5032601;28;20433;-63
2022/10/21 07:04:59;;;;;;;27.20;17.60;;;;;;;10.76;100.00;100558.56;5032308;28;20101;-63
2022/10/21 07:07:24;;;;;;;29.42;20.38;;;;;;;10.81;100.00;100563.13;5032400;28;20025;-62
2022/10/21 07:09:49;;;;;;;27.92;17.88;;;;;;;10.84;100.00;100565.25;5030889;28;20045;-62
2022/10/21 07:12:15;;;;;;;28.40;17.05;;;;;;;10.88;100.00;100566.28;5032125;28;20029;-63
2022/10/21 07:14:40;;;;;;;26.98;16.65;;;;;;;10.92;100.00;100583.88;5032374;28;20037;-63
2022/10/21 07:17:06;;;;;;;27.08;17.75;;;;;;;10.99;100.00;100575.13;5032325;28;20025;-62
2022/10/21 07:19:32;;;;;;;26.83;17.40;;;;;;;11.04;100.00;100576.94;5032405;28;20091;-63
2022/10/21 07:21:57;;;;;;;31.08;20.08;;;;;;;11.11;100.00;100587.59;5031943;28;20033;-63
2022/10/21 07:24:22;;;;;;;28.98;17.70;;;;;;;11.17;100.00;100584.38;5032136;28;20530;-63
2022/10/21 07:26:49;;;;;;;26.98;16.98;;;;;;;11.21;100.00;100585.34;5031936;28;20029;-63
2022/10/21 07:29:14;;;;;;;26.58;17.63;;;;;;;11.28;100.00;100596.00;5032036;28;20059;-63
2022/10/21 07:31:39;;;;;;;27.80;18.17;;;;;;;11.34;100.00;100589.16;5031953;28;20021;-63
2022/10/21 07:34:07;;;;;;;28.10;18.10;;;;;;;11.39;100.00;100588.22;5031948;28;20492;-63
2022/10/21 07:36:36;;;;;;;28.10;17.17;;;;;;;11.46;100.00;100588.59;5031940;28;20056;-63
2022/10/21 07:39:05;;;;;;;27.25;17.67;;;;;;;11.47;100.00;100590.25;5031928;28;20044;-63
2022/10/21 07:41:38;;;;;;;27.30;17.10;;;;;;;11.55;100.00;100583.91;5031886;28;20120;-63
2022/10/21 07:44:04;;;;;;;26.92;17.08;;;;;;;11.64;100.00;100588.69;5031831;28;20021;-63
2022/10/21 07:46:30;;;;;;;26.65;16.63;;;;;;;11.70;100.00;100591.00;5031785;28;20034;-63
2022/10/21 07:48:55;;;;;;;26.67;17.13;;;;;;;11.76;100.00;100590.84;5031824;28;20469;-63
2022/10/21 07:51:23;;;;;;;26.55;16.50;;;;;;;11.79;100.00;100581.88;5031865;28;20022;-63
2022/10/21 07:53:51;;;;;;;26.83;16.40;;;;;;;11.83;100.00;100580.09;5031943;28;20480;-63
2022/10/21 07:56:23;;;;;;;25.27;17.10;;;;;;;11.92;100.00;100586.47;5032239;28;20046;-63
2022/10/21 07:58:49;;;;;;;28.00;17.33;;;;;;;11.99;100.00;100594.38;5031819;28;20040;-63
2022/10/21 08:01:15;;;;;;;25.85;16.50;;;;;;;12.02;100.00;100596.50;5031832;28;20504;-63
2022/10/21 08:03:41;;;;;;;26.90;17.17;;;;;;;12.09;100.00;100587.72;5032003;28;20033;-63
2022/10/21 08:06:08;;;;;;;26.02;16.80;;;;;;;12.12;100.00;100587.03;5031779;28;20032;-63
2022/10/21 08:08:34;;;;;;;25.05;16.80;;;;;;;12.19;100.00;100594.91;5031977;28;20025;-63
2022/10/21 08:11:01;;;;;;;25.98;16.45;;;;;;;12.24;100.00;100594.72;5031766;28;20027;-63
2022/10/21 08:13:26;;;;;;;25.42;16.73;;;;;;;12.31;100.00;100603.41;5032002;28;20083;-62
2022/10/21 08:15:55;;;;;;;27.45;17.33;;;;;;;12.33;100.00;100596.41;5031735;28;20054;-63
2022/10/21 08:18:21;;;;;;;28.70;18.13;;;;;;;12.41;100.00;100592.00;5031781;28;20542;-62
2022/10/21 08:20:47;;;;;;;27.60;17.35;;;;;;;12.46;100.00;100591.03;5030230;28;20026;-62
2022/10/21 08:23:16;;;;;;;25.17;16.80;;;;;;;12.47;100.00;100587.91;5035100;28;20053;-62
2022/10/21 08:25:48;;;;;;;28.58;17.60;;;;;;;12.49;100.00;100582.03;5035433;28;20049;-62
2022/10/21 08:28:14;;;;;;;24.98;16.98;;;;;;;12.48;100.00;100581.22;5035725;28;20040;-62
2022/10/21 08:30:40;;;;;;;26.30;16.92;;;;;;;12.49;100.00;100587.59;5035871;28;20120;-62
2022/10/21 08:33:05;;;;;;;28.58;17.98;;;;;;;12.49;100.00;100593.13;5034402;28;20033;-62
2022/10/21 08:35:31;;;;;;;25.88;17.02;;;;;;;12.50;100.00;100596.75;5035574;28;20140;-63
2022/10/21 08:37:56;;;;;;;25.98;16.92;;;;;;;12.47;100.00;100595.41;5033940;28;20074;-62
2022/10/21 08:40:21;;;;;;;26.10;17.67;;;;;;;12.46;100.00;100602.13;5035668;28;20391;-63
2022/10/21 08:42:47;;;;;;;26.85;17.77;;;;;;;12.46;100.00;100608.47;5035460;28;20034;-63
2022/10/21 08:45:31;;;;;;;25.90;17.02;;;;;;;12.47;100.00;100603.72;5035393;28;20044;-64
2022/10/21 08:48:04;;;;;;;25.08;17.45;;;;;;;12.41;100.00;100594.78;5035595;28;20026;-63
2022/10/21 08:50:36;;;;;;;28.20;18.02;;;;;;;12.43;100.00;100609.13;5035509;28;20146;-63
2022/10/21 08:53:16;;;;;;;26.83;17.92;;;;;;;12.45;100.00;100611.59;5035389;28;20421;-64
2022/10/21 08:55:43;;;;;;;29.63;17.67;;;;;;;12.39;100.00;100602.59;5035303;28;20112;-63
2022/10/21 08:58:19;;;;;;;26.85;18.10;;;;;;;12.45;100.00;100611.59;5035169;28;20032;-63
2022/10/21 09:00:54;;;;;;;26.35;17.90;;;;;;;12.45;100.00;100615.16;5035277;28;20075;-64
2022/10/21 09:03:28;;;;;;;28.50;18.27;;;;;;;12.48;100.00;100630.34;5035019;28;20029;-63
2022/10/21 09:06:03;;;;;;;28.95;17.42;;;;;;;12.50;100.00;100627.25;5034798;28;20041;-63
2022/10/21 09:08:49;;;;;;;29.35;18.25;;;;;;;12.51;100.00;100618.59;5035051;28;20044;-63
2022/10/21 09:11:49;;;;;;;29.25;18.73;;;;;;;12.56;100.00;100617.63;5035232;28;20033;-63
2022/10/21 09:14:43;;;;;;;26.30;17.35;;;;;;;12.56;100.00;100618.47;5015670;28;20114;-63
2022/10/21 09:17:18;;;;;;;26.23;17.40;;;;;;;12.60;100.00;100611.09;5035155;28;20033;-63
2022/10/21 09:20:08;;;;;;;25.73;16.13;;;;;;;12.71;100.00;100625.47;5034919;28;20053;-63
2022/10/21 09:22:57;;;;;;;27.35;16.80;;;;;;;12.78;100.00;100631.38;5034671;28;20120;-62
2022/10/21 09:25:51;;;;;;;24.65;16.67;;;;;;;12.85;100.00;100619.75;5033082;28;20064;-69
2022/10/21 09:28:17;;;;;;;27.48;16.08;;;;;;;12.92;100.00;100622.88;5034948;28;20032;-64
2022/10/21 09:30:43;;;;;;;25.20;16.95;;;;;;;13.00;100.00;100628.75;5034450;28;20021;-63
2022/10/21 09:33:22;;;;;;;24.88;17.02;;;;;;;13.05;100.00;100621.06;5033659;28;20045;-63
2022/10/21 09:35:58;;;;;;;26.63;15.20;;;;;;;13.10;100.00;100615.31;5034488;28;20033;-63
2022/10/21 09:38:32;;;;;;;26.40;16.15;;;;;;;13.12;100.00;100623.34;5034712;28;20087;-63
2022/10/21 09:41:02;;;;;;;26.85;16.40;;;;;;;13.21;100.00;100623.31;5034463;28;20031;-63
2022/10/21 09:43:28;;;;;;;24.98;16.58;;;;;;;13.26;100.00;100614.81;5034268;28;20220;-62
2022/10/21 09:45:54;;;;;;;27.05;16.48;;;;;;;13.30;100.00;100613.00;5034289;28;20040;-63
2022/10/21 09:48:33;;;;;;;24.25;14.93;;;;;;;13.33;100.00;100597.63;5034275;28;20048;-63
2022/10/21 09:51:05;;;;;;;23.65;15.57;;;;;;;13.42;100.00;100601.22;5034271;28;20030;-63
2022/10/21 09:53:37;;;;;;;25.75;16.88;;;;;;;13.57;100.00;100611.81;5034259;28;20481;-63
2022/10/21 09:56:10;;;;;;;22.45;14.77;;;;;;;13.66;100.00;100610.97;5034247;28;20084;-63
2022/10/21 09:58:35;;;;;;;22.85;14.70;;;;;;;13.70;100.00;100607.19;5035334;28;20037;-63
2022/10/21 10:01:01;;;;;;;23.15;15.48;;;;;;;13.81;100.00;100604.84;5034644;28;20087;-64
2022/10/21 10:04:09;;;;;;;23.70;15.82;;;;;;;13.92;100.00;100594.19;5034142;28;20485;-63
2022/10/21 10:06:44;;;;;;;24.65;15.50;;;;;;;13.99;100.00;100602.81;4972940;28;20030;-63
2022/10/21 10:09:15;;;;;;;24.17;16.45;;;;;;;14.11;100.00;100613.19;4973426;28;20058;-63
2022/10/21 10:11:49;;;;;;;23.92;15.57;;;;;;;14.19;100.00;100611.53;5008714;28;20323;-64
2022/10/21 10:14:36;;;;;;;23.13;14.65;;;;;;;14.28;100.00;100619.81;5033977;28;20036;-63
2022/10/21 10:17:29;;;;;;;25.00;15.38;;;;;;;14.36;100.00;100618.94;5032501;28;20040;-63
2022/10/21 10:20:03;;;;;;;23.05;14.98;;;;;;;14.41;100.00;100615.13;5026446;28;20120;-63
2022/10/21 10:22:37;;;;;;;24.35;16.02;;;;;;;14.42;100.00;100614.81;5033970;28;20044;-63
2022/10/21 10:25:17;;;;;;;24.95;15.52;;;;;;;14.54;100.00;100622.41;5033594;28;20120;-62
2022/10/21 10:27:55;;;;;;;24.42;15.50;;;;;;;14.59;100.00;100627.81;5033431;28;20038;-63
2022/10/21 10:30:22;;;;;;;22.80;14.45;;;;;;;14.68;100.00;100635.28;5033556;28;20025;-62
2022/10/21 10:32:51;;;;;;;24.00;15.32;;;;;;;14.75;100.00;100630.78;5033459;28;20029;-63
2022/10/21 10:35:37;;;;;;;23.17;15.32;;;;;;;14.86;100.00;100634.00;5032320;28;20460;-62
2022/10/21 10:38:04;;;;;;;21.92;14.65;;;;;;;14.91;100.00;100630.19;5033147;28;20082;-63
2022/10/21 10:40:38;;;;;;;22.52;14.30;;;;;;;15.01;100.00;100638.13;5033181;28;20384;-63
2022/10/21 10:43:15;;;;;;;23.60;15.00;;;;;;;15.11;100.00;100634.09;5033507;28;20033;-63
2022/10/21 10:45:52;;;;;;;23.60;14.93;;;;;;;15.24;100.00;100633.00;5033047;28;20045;-63
2022/10/21 10:48:32;;;;;;;25.00;14.95;;;;;;;15.33;100.00;100632.09;5031734;28;20476;-63
2022/10/21 10:50:57;;;;;;;24.45;15.35;;;;;;;15.44;100.00;100639.66;5033342;28;20053;-63
2022/10/21 10:53:33;;;;;;;22.48;14.55;;;;;;;15.57;100.00;100636.91;5032988;28;20442;-63
2022/10/21 10:56:19;;;;;;;23.08;14.80;;;;;;;15.70;100.00;100638.53;5033062;28;20120;-62
2022/10/21 10:58:56;;;;;;;22.38;14.07;;;;;;;15.75;100.00;100627.19;5032988;28;20029;-62
2022/10/21 11:01:30;;;;;;;23.05;14.40;;;;;;;15.90;100.00;100631.28;5032872;28;20435;-63
2022/10/21 11:03:58;;;;;;;;;;;;;;;16.05;100.00;100638.16;5033160;28;20057;-62
2022/10/21 11:06:34;;;;;;;21.73;13.35;;;;;;;16.14;100.00;100635.25;5032787;28;20384;-62
2022/10/21 11:09:00;;;;;;;19.92;12.82;;;;;;;16.27;100.00;100629.66;5032712;28;20543;-63
2022/10/21 11:11:34;;;;;;;21.63;12.50;;;;;;;16.40;100.00;100628.47;5032664;28;20116;-63
2022/10/21 11:13:59;;;;;;;21.80;12.75;;;;;;;16.53;100.00;100630.06;5032765;28;20034;-63